createdAt,value
2022-10-09T00:01:38.649Z,13.22
2022-10-09T00:04:01.234Z,13.28
2022-10-09T00:06:32.387Z,13.32
2022-10-09T00:08:56.123Z,13.34
2022-10-09T00:11:22.274Z,13.34
2022-10-09T00:13:45.659Z,13.43
2022-10-09T00:16:10.822Z,13.39
2022-10-09T00:18:33.826Z,13.37
2022-10-09T00:20:56.360Z,13.39
2022-10-09T00:23:19.173Z,13.40
2022-10-09T00:25:53.570Z,13.39
2022-10-09T00:28:16.262Z,13.42
2022-10-09T00:30:39.458Z,13.47
2022-10-09T00:33:02.079Z,13.44
2022-10-09T00:35:24.677Z,13.46
2022-10-09T00:37:48.724Z,13.43
2022-10-09T00:40:11.630Z,13.39
2022-10-09T00:42:34.264Z,13.46
2022-10-09T00:45:00.271Z,13.48
2022-10-09T00:47:34.806Z,13.47
2022-10-09T00:50:12.075Z,13.51
2022-10-09T00:52:34.665Z,13.53
2022-10-09T00:54:59.226Z,13.51
2022-10-09T00:57:21.934Z,13.37
2022-10-09T00:59:45.192Z,13.34
2022-10-09T01:02:07.950Z,13.34
2022-10-09T01:04:31.083Z,13.37
2022-10-09T01:07:18.230Z,13.33
2022-10-09T01:10:05.169Z,13.22
2022-10-09T01:12:58.580Z,13.19
2022-10-09T01:15:53.676Z,13.17
2022-10-09T01:18:29.046Z,13.22
2022-10-09T01:20:56.686Z,13.07
2022-10-09T01:23:35.817Z,13.05
2022-10-09T01:26:13.298Z,12.99
2022-10-09T01:28:38.477Z,13.10
2022-10-09T01:31:04.606Z,13.13
2022-10-09T01:33:30.516Z,12.99
2022-10-09T01:35:53.721Z,12.88
2022-10-09T01:38:17.907Z,12.78
2022-10-09T01:40:40.475Z,12.84
2022-10-09T01:43:03.187Z,12.84
2022-10-09T01:45:25.831Z,12.78
2022-10-09T01:47:48.451Z,12.67
2022-10-09T01:50:27.421Z,12.68
2022-10-09T01:52:53.801Z,12.61
2022-10-09T01:55:34.329Z,12.68
2022-10-09T01:58:00.058Z,12.54
2022-10-09T02:00:23.072Z,12.61
2022-10-09T02:02:46.735Z,12.68
2022-10-09T02:05:22.697Z,12.68
2022-10-09T02:07:46.012Z,12.65
2022-10-09T02:10:10.144Z,12.68
2022-10-09T02:12:38.657Z,12.65
2022-10-09T02:15:01.121Z,12.64
2022-10-09T02:17:29.332Z,12.60
2022-10-09T02:19:56.992Z,12.55
2022-10-09T02:22:25.080Z,12.68
2022-10-09T02:24:47.956Z,12.67
2022-10-09T02:27:12.466Z,12.54
2022-10-09T02:29:35.596Z,12.60
2022-10-09T02:31:58.205Z,12.60
2022-10-09T02:34:21.303Z,12.64
2022-10-09T02:36:48.626Z,12.77
2022-10-09T02:39:11.251Z,12.72
2022-10-09T02:41:34.112Z,12.68
2022-10-09T02:43:56.733Z,12.75
2022-10-09T02:46:19.676Z,12.67
2022-10-09T02:48:42.369Z,12.65
2022-10-09T02:51:05.040Z,12.72
2022-10-09T02:53:27.925Z,12.77
2022-10-09T02:55:50.624Z,12.82
2022-10-09T02:58:14.981Z,12.84
2022-10-09T03:00:38.374Z,12.87
2022-10-09T03:03:00.931Z,12.81
2022-10-09T03:05:23.516Z,12.85
2022-10-09T03:07:51.306Z,12.87
2022-10-09T03:10:14.076Z,12.79
2022-10-09T03:12:36.511Z,12.82
2022-10-09T03:14:59.036Z,12.84
2022-10-09T03:17:21.576Z,12.87
2022-10-09T03:19:45.905Z,12.88
2022-10-09T03:22:08.404Z,12.85
2022-10-09T03:24:31.029Z,12.89
2022-10-09T03:26:53.626Z,12.89
2022-10-09T03:29:16.058Z,12.77
2022-10-09T03:31:54.085Z,12.75
2022-10-09T03:34:16.877Z,12.71
2022-10-09T03:36:40.093Z,12.60
2022-10-09T03:39:02.607Z,12.68
2022-10-09T03:41:25.119Z,12.79
2022-10-09T03:43:47.736Z,12.77
2022-10-09T03:46:11.285Z,12.81
2022-10-09T03:48:34.821Z,12.77
2022-10-09T03:50:57.337Z,12.77
2022-10-09T03:53:19.878Z,12.78
2022-10-09T03:55:43.161Z,12.87
2022-10-09T03:58:06.185Z,12.85
2022-10-09T04:00:28.861Z,12.89
2022-10-09T04:02:51.829Z,12.93
2022-10-09T04:05:14.808Z,12.99
2022-10-09T04:07:37.384Z,12.96
2022-10-09T04:10:01.413Z,13.00
2022-10-09T04:12:24.280Z,13.05
2022-10-09T04:14:46.870Z,13.07
2022-10-09T04:17:09.659Z,13.12
2022-10-09T04:19:34.858Z,13.19
2022-10-09T04:21:57.631Z,13.23
2022-10-09T04:24:20.092Z,13.32
2022-10-09T04:26:42.677Z,13.34
2022-10-09T04:29:05.989Z,13.40
2022-10-09T04:31:28.624Z,13.42
2022-10-09T04:33:51.195Z,13.43
2022-10-09T04:36:13.793Z,13.43
2022-10-09T04:38:36.382Z,13.47
2022-10-09T04:41:05.392Z,13.43
2022-10-09T04:43:28.865Z,13.46
2022-10-09T04:45:51.444Z,13.47
2022-10-09T04:48:14.039Z,13.51
2022-10-09T04:50:39.095Z,13.55
2022-10-09T04:53:01.613Z,13.57
2022-10-09T04:55:24.132Z,13.50
2022-10-09T04:57:46.993Z,13.58
2022-10-09T05:00:10.275Z,13.54
2022-10-09T05:02:32.926Z,13.46
2022-10-09T05:04:57.368Z,13.44
2022-10-09T05:07:19.980Z,13.44
2022-10-09T05:09:42.679Z,13.54
2022-10-09T05:12:05.293Z,13.58
2022-10-09T05:14:27.799Z,13.65
2022-10-09T05:17:13.068Z,13.67
2022-10-09T05:19:36.713Z,13.86
2022-10-09T05:22:00.937Z,13.95
2022-10-09T05:24:23.429Z,14.04
2022-10-09T05:26:45.960Z,14.15
2022-10-09T05:29:08.667Z,14.12
2022-10-09T05:31:31.902Z,14.08
2022-10-09T05:33:56.285Z,14.11
2022-10-09T05:36:19.714Z,14.19
2022-10-09T05:38:42.513Z,14.29
2022-10-09T05:41:07.693Z,14.34
2022-10-09T05:43:33.789Z,14.49
2022-10-09T05:45:56.394Z,14.44
2022-10-09T05:48:19.987Z,14.53
2022-10-09T05:50:42.656Z,14.57
2022-10-09T05:53:05.205Z,14.60
2022-10-09T05:55:28.251Z,14.68
2022-10-09T05:57:53.011Z,14.74
2022-10-09T06:00:15.535Z,14.71
2022-10-09T06:02:38.100Z,14.70
2022-10-09T06:05:00.708Z,14.68
2022-10-09T06:07:23.223Z,14.64
2022-10-09T06:09:46.344Z,14.56
2022-10-09T06:12:09.052Z,14.59
2022-10-09T06:14:31.774Z,14.57
2022-10-09T06:16:54.382Z,14.50
2022-10-09T06:19:19.361Z,14.53
2022-10-09T06:21:42.667Z,14.51
2022-10-09T06:24:06.786Z,14.49
2022-10-09T06:26:30.585Z,14.50
2022-10-09T06:28:53.223Z,14.46
2022-10-09T06:31:21.126Z,14.39
2022-10-09T06:33:45.105Z,14.44
2022-10-09T06:36:15.963Z,14.41
2022-10-09T06:38:39.356Z,14.43
2022-10-09T06:41:06.769Z,14.50
2022-10-09T06:43:29.604Z,14.50
2022-10-09T06:45:52.089Z,14.67
2022-10-09T06:48:14.692Z,14.94
2022-10-09T06:50:37.549Z,15.18
2022-10-09T06:53:00.247Z,15.29
2022-10-09T06:55:27.864Z,15.47
2022-10-09T06:57:51.121Z,15.53
2022-10-09T07:00:14.332Z,15.57
2022-10-09T07:02:41.802Z,15.56
2022-10-09T07:05:06.924Z,15.60
2022-10-09T07:07:29.466Z,15.59
2022-10-09T07:09:54.686Z,15.60
2022-10-09T07:12:17.396Z,15.54
2022-10-09T07:14:39.855Z,15.47
2022-10-09T07:17:43.424Z,15.46
2022-10-09T07:20:06.757Z,15.43
2022-10-09T07:22:29.955Z,15.49
2022-10-09T07:24:52.899Z,15.69
2022-10-09T07:27:15.534Z,16.25
2022-10-09T07:29:38.591Z,16.75
2022-10-09T07:32:01.158Z,17.23
2022-10-09T07:34:23.838Z,17.93
2022-10-09T07:36:46.413Z,18.44
2022-10-09T07:39:09.104Z,19.02
2022-10-09T07:41:31.616Z,18.84
2022-10-09T07:43:54.507Z,18.91
2022-10-09T07:46:19.719Z,19.67
2022-10-09T07:48:43.111Z,19.92
2022-10-09T07:51:16.661Z,19.90
2022-10-09T07:53:39.376Z,19.43
2022-10-09T07:56:01.833Z,18.86
2022-10-09T07:58:25.448Z,18.58
2022-10-09T08:00:47.893Z,18.14
2022-10-09T08:03:10.742Z,17.87
2022-10-09T08:05:33.333Z,17.76
2022-10-09T08:07:56.114Z,17.68
2022-10-09T08:10:18.660Z,17.63
2022-10-09T08:12:41.197Z,17.61
2022-10-09T08:15:04.024Z,17.25
2022-10-09T08:17:26.615Z,17.31
2022-10-09T08:19:49.180Z,17.46
2022-10-09T08:22:14.298Z,17.46
2022-10-09T08:24:36.806Z,17.45
2022-10-09T08:26:59.752Z,17.42
2022-10-09T08:29:22.236Z,17.45
2022-10-09T08:31:44.794Z,17.58
2022-10-09T08:34:07.435Z,17.58
2022-10-09T08:36:30.869Z,17.66
2022-10-09T08:38:53.507Z,17.69
2022-10-09T08:41:18.829Z,17.73
2022-10-09T08:43:47.034Z,17.79
2022-10-09T08:46:41.535Z,17.79
2022-10-09T08:49:05.277Z,17.86
2022-10-09T08:51:33.181Z,17.76
2022-10-09T08:54:04.477Z,17.66
2022-10-09T08:56:27.702Z,17.79
2022-10-09T08:58:50.292Z,17.75
2022-10-09T09:01:16.886Z,17.82
2022-10-09T09:03:57.627Z,17.91
2022-10-09T09:07:04.471Z,18.06
2022-10-09T09:09:45.500Z,17.97
2022-10-09T09:12:48.984Z,18.10
2022-10-09T09:15:38.331Z,18.10
2022-10-09T09:18:25.556Z,18.31
2022-10-09T09:20:48.209Z,18.37
2022-10-09T09:23:15.336Z,18.36
2022-10-09T09:25:42.050Z,18.44
2022-10-09T09:28:20.575Z,18.40
2022-10-09T09:30:51.909Z,18.49
2022-10-09T09:33:18.928Z,18.58
2022-10-09T09:35:59.633Z,18.72
2022-10-09T09:38:22.284Z,18.75
2022-10-09T09:40:47.188Z,18.86
2022-10-09T09:43:22.500Z,18.93
2022-10-09T09:45:46.621Z,19.20
2022-10-09T09:48:37.210Z,19.31
2022-10-09T09:51:23.599Z,19.49
2022-10-09T09:53:50.058Z,19.65
2022-10-09T09:56:12.628Z,19.77
2022-10-09T09:58:50.007Z,19.90
2022-10-09T10:01:25.352Z,19.93
2022-10-09T10:03:50.760Z,20.29
2022-10-09T10:06:29.079Z,20.47
2022-10-09T10:09:24.622Z,20.68
2022-10-09T10:12:00.529Z,20.75
2022-10-09T10:14:23.583Z,20.78
2022-10-09T10:16:49.896Z,20.83
2022-10-09T10:19:25.077Z,20.91
2022-10-09T10:21:54.852Z,20.95
2022-10-09T10:24:22.946Z,21.06
2022-10-09T10:26:53.027Z,20.84
2022-10-09T10:29:17.563Z,20.67
2022-10-09T10:31:58.439Z,20.96
2022-10-09T10:34:27.799Z,20.94
2022-10-09T10:37:01.112Z,20.96
2022-10-09T10:39:39.858Z,21.28
2022-10-09T10:42:06.913Z,20.94
2022-10-09T10:44:37.260Z,21.36
2022-10-09T10:47:06.651Z,21.33
2022-10-09T10:49:33.486Z,21.19
2022-10-09T10:52:06.620Z,21.21
2022-10-09T10:54:38.087Z,21.28
2022-10-09T10:57:29.686Z,21.12
2022-10-09T11:00:11.675Z,21.26
2022-10-09T11:02:49.500Z,21.35
2022-10-09T11:05:27.029Z,21.03
2022-10-09T11:08:13.935Z,21.35
2022-10-09T11:10:54.193Z,21.57
2022-10-09T11:13:25.816Z,21.60
2022-10-09T11:15:54.021Z,21.54
2022-10-09T11:18:33.077Z,21.69
2022-10-09T11:21:04.329Z,21.70
2022-10-09T11:23:48.013Z,21.54
2022-10-09T11:26:22.896Z,21.08
2022-10-09T11:28:50.619Z,20.92
2022-10-09T11:31:22.158Z,20.87
2022-10-09T11:33:48.727Z,20.74
2022-10-09T11:36:18.555Z,20.65
2022-10-09T11:38:46.279Z,21.01
2022-10-09T11:41:09.511Z,21.22
2022-10-09T11:43:38.315Z,21.30
2022-10-09T11:46:29.351Z,21.76
2022-10-09T11:49:21.543Z,21.63
2022-10-09T11:52:08.271Z,21.63
2022-10-09T11:54:31.175Z,21.88
2022-10-09T11:56:59.793Z,21.76
2022-10-09T11:59:28.780Z,21.80
2022-10-09T12:01:51.682Z,21.66
2022-10-09T12:04:14.193Z,21.61
2022-10-09T12:06:53.115Z,21.46
2022-10-09T12:09:48.414Z,21.42
2022-10-09T12:12:16.829Z,21.33
2022-10-09T12:14:39.435Z,21.46
2022-10-09T12:17:14.200Z,21.23
2022-10-09T12:19:40.106Z,21.06
2022-10-09T12:22:07.664Z,21.08
2022-10-09T12:24:39.212Z,21.21
2022-10-09T12:27:03.341Z,21.33
2022-10-09T12:29:34.854Z,21.43
2022-10-09T12:32:05.879Z,21.39
2022-10-09T12:34:52.096Z,21.09
2022-10-09T12:37:30.687Z,20.99
2022-10-09T12:39:53.287Z,20.96
2022-10-09T12:42:25.200Z,21.57
2022-10-09T12:44:50.637Z,21.74
2022-10-09T12:47:21.887Z,21.91
2022-10-09T12:49:55.584Z,21.88
2022-10-09T12:52:18.374Z,22.00
2022-10-09T12:54:44.312Z,21.71
2022-10-09T12:57:14.120Z,21.63
2022-10-09T12:59:37.567Z,21.42
2022-10-09T13:02:00.554Z,21.47
2022-10-09T13:04:27.767Z,21.18
2022-10-09T13:06:52.123Z,21.28
2022-10-09T13:09:25.096Z,21.19
2022-10-09T13:12:00.109Z,20.77
2022-10-09T13:14:35.634Z,20.46
2022-10-09T13:16:58.278Z,20.41
2022-10-09T13:19:27.327Z,20.26
2022-10-09T13:22:26.809Z,20.23
2022-10-09T13:24:55.553Z,20.30
2022-10-09T13:27:19.668Z,20.44
2022-10-09T13:29:43.377Z,20.23
2022-10-09T13:32:09.028Z,20.29
2022-10-09T13:34:31.680Z,20.19
2022-10-09T13:36:54.288Z,20.33
2022-10-09T13:39:17.190Z,20.33
2022-10-09T13:41:39.822Z,20.36
2022-10-09T13:44:02.478Z,20.56
2022-10-09T13:46:25.363Z,20.84
2022-10-09T13:48:48.001Z,20.87
2022-10-09T13:51:10.979Z,20.92
2022-10-09T13:53:34.117Z,21.08
2022-10-09T13:56:00.762Z,21.26
2022-10-09T13:58:23.921Z,21.50
2022-10-09T14:00:46.834Z,21.49
2022-10-09T14:03:09.841Z,21.63
2022-10-09T14:05:32.329Z,21.70
2022-10-09T14:07:55.504Z,21.46
2022-10-09T14:10:23.004Z,21.15
2022-10-09T14:12:46.798Z,20.91
2022-10-09T14:15:09.869Z,20.77
2022-10-09T14:17:32.714Z,20.53
2022-10-09T14:19:55.524Z,20.71
2022-10-09T14:22:18.148Z,20.78
2022-10-09T14:24:41.067Z,20.53
2022-10-09T14:27:03.686Z,20.39
2022-10-09T14:29:26.254Z,20.08
2022-10-09T14:31:51.828Z,19.83
2022-10-09T14:34:14.882Z,19.57
2022-10-09T14:36:37.488Z,19.40
2022-10-09T14:39:03.727Z,19.53
2022-10-09T14:41:26.499Z,19.54
2022-10-09T14:43:57.006Z,19.41
2022-10-09T14:46:19.634Z,19.20
2022-10-09T14:48:42.677Z,19.14
2022-10-09T14:51:07.813Z,18.93
2022-10-09T14:53:30.272Z,19.00
2022-10-09T14:55:52.897Z,18.95
2022-10-09T14:58:15.346Z,18.85
2022-10-09T15:00:37.987Z,18.91
2022-10-09T15:03:00.532Z,18.93
2022-10-09T15:05:23.264Z,18.85
2022-10-09T15:07:45.864Z,18.66
2022-10-09T15:10:08.797Z,18.54
2022-10-09T15:12:31.357Z,18.45
2022-10-09T15:14:54.106Z,18.41
2022-10-09T15:17:16.622Z,18.44
2022-10-09T15:19:40.532Z,18.28
2022-10-09T15:22:03.690Z,18.18
2022-10-09T15:24:26.207Z,18.13
2022-10-09T15:26:48.674Z,18.20
2022-10-09T15:29:12.151Z,18.21
2022-10-09T15:31:37.629Z,18.30
2022-10-09T15:34:03.472Z,18.24
2022-10-09T15:36:26.244Z,18.16
2022-10-09T15:38:50.214Z,18.17
2022-10-09T15:41:25.060Z,18.13
2022-10-09T15:43:48.408Z,18.14
2022-10-09T15:46:10.954Z,17.93
2022-10-09T15:48:33.633Z,17.86
2022-10-09T15:50:56.499Z,17.72
2022-10-09T15:53:22.962Z,17.55
2022-10-09T15:55:47.347Z,17.41
2022-10-09T15:58:10.687Z,17.32
2022-10-09T16:00:38.518Z,17.20
2022-10-09T16:03:01.407Z,17.06
2022-10-09T16:05:23.956Z,16.96
2022-10-09T16:07:47.365Z,16.87
2022-10-09T16:10:10.741Z,16.80
2022-10-09T16:12:33.584Z,16.75
2022-10-09T16:14:56.150Z,16.76
2022-10-09T16:17:18.731Z,16.62
2022-10-09T16:19:41.640Z,16.51
2022-10-09T16:22:05.164Z,16.36
2022-10-09T16:24:27.617Z,16.35
2022-10-09T16:26:51.073Z,16.24
2022-10-09T16:29:13.569Z,16.32
2022-10-09T16:31:36.952Z,16.25
2022-10-09T16:33:59.455Z,16.17
2022-10-09T16:36:22.415Z,16.10
2022-10-09T16:38:45.441Z,16.28
2022-10-09T16:41:14.751Z,16.38
2022-10-09T16:43:38.527Z,16.42
2022-10-09T16:46:32.276Z,16.48
2022-10-09T16:48:57.415Z,16.62
2022-10-09T16:51:23.917Z,16.75
2022-10-09T16:53:53.039Z,16.75
2022-10-09T16:56:19.895Z,16.69
2022-10-09T16:58:43.324Z,16.60
2022-10-09T17:01:09.830Z,16.55
2022-10-09T17:03:33.016Z,16.42
2022-10-09T17:05:55.705Z,16.32
2022-10-09T17:08:18.241Z,16.15
2022-10-09T17:10:42.243Z,16.02
2022-10-09T17:13:04.819Z,15.91
2022-10-09T17:15:27.726Z,15.81
2022-10-09T17:17:50.777Z,15.70
2022-10-09T17:20:13.994Z,15.59
2022-10-09T17:22:36.770Z,15.57
2022-10-09T17:24:59.438Z,15.47
2022-10-09T17:27:22.143Z,15.24
2022-10-09T17:29:44.679Z,15.04
2022-10-09T17:32:09.265Z,15.06
2022-10-09T17:34:31.831Z,15.18
2022-10-09T17:36:54.568Z,15.02
2022-10-09T17:39:18.332Z,14.87
2022-10-09T17:41:41.316Z,14.84
2022-10-09T17:44:04.675Z,14.84
2022-10-09T17:46:28.870Z,14.77
2022-10-09T17:48:56.135Z,14.73
2022-10-09T17:51:32.539Z,14.91
2022-10-09T17:56:26.097Z,14.67
2022-10-09T17:59:09.555Z,14.84
2022-10-09T18:01:32.533Z,14.87
2022-10-09T18:03:55.192Z,14.89
2022-10-09T18:06:19.924Z,14.89
2022-10-09T18:08:43.121Z,14.88
2022-10-09T18:11:09.039Z,14.88
2022-10-09T18:13:32.135Z,14.99
2022-10-09T18:15:54.771Z,15.01
2022-10-09T18:18:18.936Z,15.05
2022-10-09T18:20:41.780Z,15.15
2022-10-09T18:23:05.299Z,15.11
2022-10-09T18:25:27.804Z,15.02
2022-10-09T18:27:50.797Z,14.95
2022-10-09T18:30:14.012Z,14.66
2022-10-09T18:32:36.845Z,14.67
2022-10-09T18:34:59.458Z,14.71
2022-10-09T18:37:22.178Z,14.63
2022-10-09T18:39:45.228Z,14.55
2022-10-09T18:42:08.135Z,14.46
2022-10-09T18:44:33.978Z,14.33
2022-10-09T18:46:59.045Z,14.30
2022-10-09T18:49:29.360Z,14.09
2022-10-09T18:51:52.437Z,14.16
2022-10-09T18:54:18.296Z,14.18
2022-10-09T18:56:41.532Z,14.04
2022-10-09T18:59:08.736Z,14.02
2022-10-09T19:01:31.388Z,13.94
2022-10-09T19:03:54.079Z,13.95
2022-10-09T19:06:17.634Z,13.86
2022-10-09T19:08:40.221Z,13.86
2022-10-09T19:11:03.586Z,13.79
2022-10-09T19:13:26.834Z,13.70
2022-10-09T19:15:58.700Z,13.68
2022-10-09T19:18:22.292Z,13.57
2022-10-09T19:20:44.972Z,13.54
2022-10-09T19:23:08.522Z,13.60
2022-10-09T19:25:31.906Z,13.60
2022-10-09T19:27:54.800Z,13.58
2022-10-09T19:30:17.494Z,13.57
2022-10-09T19:32:40.015Z,13.77
2022-10-09T19:35:02.849Z,13.88
2022-10-09T19:37:28.918Z,13.92
2022-10-09T19:39:52.736Z,14.08
2022-10-09T19:42:16.627Z,14.23
2022-10-09T19:44:42.138Z,14.30
2022-10-09T19:47:05.115Z,14.34
2022-10-09T19:49:31.655Z,14.33
2022-10-09T19:51:54.690Z,14.39
2022-10-09T19:54:18.176Z,14.28
2022-10-09T19:56:41.069Z,14.25
2022-10-09T19:59:07.969Z,14.19
2022-10-09T20:01:32.832Z,14.00
2022-10-09T20:03:57.145Z,13.85
2022-10-09T20:06:19.682Z,13.82
2022-10-09T20:08:43.865Z,13.71
2022-10-09T20:11:07.499Z,13.65
2022-10-09T20:13:34.838Z,13.57
2022-10-09T20:15:59.915Z,13.37
2022-10-09T20:18:23.706Z,13.34
2022-10-09T20:20:48.107Z,13.16
2022-10-09T20:23:10.637Z,13.09
2022-10-09T20:25:34.041Z,13.02
2022-10-09T20:27:56.563Z,12.93
2022-10-09T20:30:19.112Z,12.85
2022-10-09T20:32:42.279Z,12.84
2022-10-09T20:35:05.400Z,12.69
2022-10-09T20:37:28.309Z,12.69
2022-10-09T20:39:51.133Z,12.65
2022-10-09T20:42:14.122Z,12.60
2022-10-09T20:44:36.881Z,12.55
2022-10-09T20:46:59.682Z,12.51
2022-10-09T20:49:23.379Z,12.47
2022-10-09T20:51:45.909Z,12.44
2022-10-09T20:54:13.800Z,12.45
2022-10-09T20:56:36.775Z,12.38
2022-10-09T20:59:00.793Z,12.38
2022-10-09T21:01:24.597Z,12.42
2022-10-09T21:03:47.695Z,12.42
2022-10-09T21:06:12.996Z,12.50
2022-10-09T21:08:36.107Z,12.47
2022-10-09T21:10:58.890Z,12.34
2022-10-09T21:13:21.513Z,12.26
2022-10-09T21:15:46.443Z,12.27
2022-10-09T21:18:09.148Z,12.14
2022-10-09T21:20:31.583Z,12.00
2022-10-09T21:22:54.105Z,11.99
2022-10-09T21:25:16.621Z,11.93
2022-10-09T21:27:39.199Z,12.06
2022-10-09T21:30:01.844Z,11.93
2022-10-09T21:32:24.847Z,12.02
2022-10-09T21:34:47.529Z,12.02
2022-10-09T21:37:26.034Z,11.87
2022-10-09T21:39:48.900Z,11.86
2022-10-09T21:42:11.446Z,11.72
2022-10-09T21:44:34.952Z,11.82
2022-10-09T21:46:57.530Z,11.79
2022-10-09T21:49:25.800Z,11.78
2022-10-09T21:51:48.763Z,11.65
2022-10-09T21:54:11.320Z,11.59
2022-10-09T21:56:33.959Z,11.54
2022-10-09T21:58:57.224Z,11.48
2022-10-09T22:01:19.835Z,11.48
2022-10-09T22:03:42.585Z,11.54
2022-10-09T22:06:17.754Z,11.45
2022-10-09T22:08:42.483Z,11.41
2022-10-09T22:11:06.932Z,11.45
2022-10-09T22:13:29.405Z,11.48
2022-10-09T22:15:52.277Z,11.37
2022-10-09T22:18:15.168Z,11.31
2022-10-09T22:20:50.106Z,11.31
2022-10-09T22:23:14.159Z,11.23
2022-10-09T22:25:37.608Z,11.21
2022-10-09T22:28:00.170Z,11.16
2022-10-09T22:30:22.715Z,11.13
2022-10-09T22:32:45.215Z,11.11
2022-10-09T22:35:08.141Z,11.08
2022-10-09T22:37:30.817Z,11.08
2022-10-09T22:39:53.498Z,11.06
2022-10-09T22:42:16.184Z,10.97
2022-10-09T22:44:38.993Z,10.92
2022-10-09T22:47:01.576Z,10.92
2022-10-09T22:49:24.073Z,10.86
2022-10-09T22:51:46.615Z,10.81
2022-10-09T22:54:10.777Z,10.76
2022-10-09T22:56:36.537Z,10.76
2022-10-09T22:58:59.246Z,10.79
2022-10-09T23:01:34.902Z,10.76
2022-10-09T23:04:03.410Z,10.76
2022-10-09T23:06:26.235Z,10.73
2022-10-09T23:08:49.302Z,10.76
2022-10-09T23:11:13.636Z,10.75
2022-10-09T23:13:37.027Z,10.70
2022-10-09T23:16:00.959Z,10.65
2022-10-09T23:18:23.571Z,10.68
2022-10-09T23:20:46.262Z,10.62
2022-10-09T23:23:08.801Z,10.61
2022-10-09T23:25:31.441Z,10.61
2022-10-09T23:27:54.169Z,10.56
2022-10-09T23:30:16.692Z,10.53
2022-10-09T23:32:39.277Z,10.51
2022-10-09T23:35:01.800Z,10.49
2022-10-09T23:37:24.442Z,10.52
2022-10-09T23:39:47.062Z,10.46
2022-10-09T23:42:09.610Z,10.42
2022-10-09T23:44:32.034Z,10.40
2022-10-09T23:46:54.819Z,10.38
2022-10-09T23:49:18.479Z,10.44
2022-10-09T23:51:41.001Z,10.52
2022-10-09T23:54:03.662Z,10.46
2022-10-09T23:56:31.772Z,10.49
2022-10-09T23:58:55.711Z,10.58
